Kliftrans — PCDB — position and weather

sailwx.info

Track history (hours):
 
Tides and Currents Weather Stations Pressure Air Temp Water Temp Dewpoint Dewpoint Depression Visibility Wind Speed Wind Dir Waves Ship Positions

Kliftrans

Last reported at 2015-Jul-03 16:30 UTC. Time now 2015-Jul-03 17:21 UTC.
Position N 52°03' E 003°16'.

Length 88 m; draft 4.5 m.

Type: Cargo ship. MMSI: 245132000.

Date/timePositionNaut miles runAvg speedWind from/ knotsBaromVisibWave heightAir tempDewpointWater temp
2015-Jul-03 16:30N 52°03' E 003°16'8 8.8
2015-Jul-03 15:33N 52°03' E 003°29'8 8.4
2015-Jul-03 14:33N 52°03' E 003°43'9 9.0
2015-Jul-03 13:33N 52°02' E 003°57'1010.3
2015-Jul-03 12:33N 51°56' E 004°12'8 8.3
2015-Jul-03 11:33N 51°55' E 004°25'0 0.1
2015-Jul-03 10:33N 51°55' E 004°25'0 0.0
2015-Jul-03 09:33N 51°55' E 004°25'0 0.0
2015-Jul-03 08:33N 51°55' E 004°25'0 0.0
2015-Jul-03 07:33N 51°55' E 004°25'0 0.0
2015-Jul-03 06:33N 51°55' E 004°25'0 0.0
2015-Jul-03 05:33N 51°55' E 004°25'0 0.0
2015-Jul-03 04:33N 51°55' E 004°25'1 1.1
2015-Jul-03 03:33N 51°54' E 004°24'1312.8
2015-Jul-03 02:33N 51°59' E 004°05'1312.6
2015-Jul-03 01:33N 51°59' E 003°44'6711.1
2015-Jul-02 19:33N 51°37' E 002°02'1111.1
2015-Jul-02 18:33N 51°33' E 001°46'1211.6
2015-Jul-02 17:33N 51°30' E 001°28'1413.4
2015-Jul-02 16:33N 51°29' E 001°06'1414.1
2015-Jul-02 15:33N 51°29' E 000°44'1313.5
2015-Jul-02 14:34N 51°27' E 000°23'10 9.4
2015-Jul-02 13:32N 51°31' E 000°09'0 0.0
2015-Jul-02 12:32N 51°31' E 000°09'0 0.0
2015-Jul-02 11:32N 51°31' E 000°09'0 0.0
2015-Jul-02 10:23N 51°31' E 000°09'0 0.0
2015-Jul-02 09:32N 51°31' E 000°09'0 0.0
2015-Jul-02 08:32N 51°31' E 000°09'0 0.0
2015-Jul-02 07:32N 51°31' E 000°09'0 0.0
2015-Jul-02 06:32N 51°31' E 000°09'0 0.0
2015-Jul-02 05:32N 51°31' E 000°09'0 0.0
2015-Jul-02 04:32N 51°31' E 000°09'0 0.0
2015-Jul-02 03:32N 51°31' E 000°09'0 0.0
2015-Jul-02 02:32N 51°31' E 000°09'0 0.0
2015-Jul-02 01:32N 51°31' E 000°09'0 0.0
2015-Jul-02 00:32N 51°31' E 000°09'0 0.0
2015-Jul-01 23:32N 51°31' E 000°09'0 0.0
2015-Jul-01 22:32N 51°31' E 000°09'0 0.0
2015-Jul-01 21:31N 51°31' E 000°09'0 0.0
2015-Jul-01 20:28N 51°31' E 000°09'0 0.0
2015-Jul-01 19:31N 51°31' E 000°09'0 0.0
2015-Jul-01 18:31N 51°31' E 000°09'0 0.0
2015-Jul-01 17:31N 51°31' E 000°09'0 0.0
2015-Jul-01 16:31N 51°31' E 000°09'0 0.0
2015-Jul-01 15:31N 51°31' E 000°09'0 0.0
2015-Jul-01 14:31N 51°31' E 000°09'0 0.0
2015-Jul-01 13:28N 51°31' E 000°09'0 0.0
2015-Jul-01 12:28N 51°31' E 000°09'0 0.0
2015-Jul-01 11:31N 51°31' E 000°09'0 0.0
2015-Jul-01 10:31N 51°31' E 000°09'0 0.0
2015-Jul-01 09:31N 51°31' E 000°09'0 0.0
2015-Jul-01 08:31N 51°31' E 000°09'0 0.0
2015-Jul-01 07:31N 51°31' E 000°09'0 0.0
2015-Jul-01 06:31N 51°31' E 000°09'0 0.0
2015-Jul-01 05:31N 51°31' E 000°09'0 0.0
2015-Jul-01 04:31N 51°31' E 000°09'0 0.0
2015-Jul-01 03:31N 51°31' E 000°09'0 0.0
2015-Jul-01 02:31N 51°31' E 000°09'0 0.0
2015-Jul-01 01:31N 51°31' E 000°09'0 0.0
2015-Jul-01 00:31N 51°31' E 000°09'0 0.0
2015-Jun-30 23:31N 51°31' E 000°09'0 0.0
2015-Jun-30 22:31N 51°31' E 000°09'0 0.0
2015-Jun-30 21:25N 51°31' E 000°09'0 0.0
2015-Jun-30 20:28N 51°31' E 000°09'0 0.0
2015-Jun-30 19:31N 51°31' E 000°09'0 0.0
2015-Jun-30 18:31N 51°31' E 000°09'0 0.0
2015-Jun-30 17:34N 51°31' E 000°09'0 0.0
2015-Jun-30 16:33N 51°31' E 000°09'0 0.0
2015-Jun-30 15:33N 51°31' E 000°09'0 0.0
2015-Jun-30 14:33N 51°31' E 000°09'0 0.0
2015-Jun-30 13:33N 51°31' E 000°09'0 0.0
2015-Jun-30 12:33N 51°31' E 000°09'0 0.0
2015-Jun-30 11:33N 51°31' E 000°09'0 0.0
2015-Jun-30 10:33N 51°31' E 000°09'0 0.0
2015-Jun-30 09:30N 51°31' E 000°09'0 0.0
2015-Jun-30 08:33N 51°31' E 000°09'0 0.0
2015-Jun-30 07:33N 51°31' E 000°09'0 0.0
2015-Jun-30 06:33N 51°31' E 000°09'0 0.0
2015-Jun-30 05:33N 51°31' E 000°09'0 0.0
2015-Jun-30 04:33N 51°31' E 000°09'0 0.0
2015-Jun-30 03:33N 51°31' E 000°09'0 0.0
2015-Jun-30 02:33N 51°31' E 000°09'0 0.0
2015-Jun-30 01:33N 51°31' E 000°09'0 0.0
2015-Jun-30 00:33N 51°31' E 000°09'0 0.0
2015-Jun-29 23:33N 51°31' E 000°09'0 0.0
2015-Jun-29 22:33N 51°31' E 000°09'0 0.0
2015-Jun-29 21:33N 51°31' E 000°09'0 0.0
2015-Jun-29 20:33N 51°31' E 000°09'0 0.0
2015-Jun-29 19:33N 51°31' E 000°09'0 0.0
2015-Jun-29 18:33N 51°31' E 000°09'0 0.0
2015-Jun-29 17:33N 51°31' E 000°09'0 0.0
2015-Jun-29 16:33N 51°31' E 000°09'0 0.0
2015-Jun-29 15:30N 51°31' E 000°09'0 0.0
2015-Jun-29 14:33N 51°31' E 000°09'0 0.0
2015-Jun-29 13:33N 51°31' E 000°09'0 0.0
2015-Jun-29 12:30N 51°31' E 000°09'0 0.0
2015-Jun-29 11:32N 51°31' E 000°09'0 0.0
2015-Jun-29 10:29N 51°31' E 000°09'0 0.0
2015-Jun-29 09:32N 51°31' E 000°09'0 0.0
2015-Jun-29 08:32N 51°31' E 000°09'0 0.0
2015-Jun-29 07:32N 51°31' E 000°09'0 0.0
2015-Jun-29 06:32N 51°31' E 000°09'0 0.0
2015-Jun-29 05:32N 51°31' E 000°09'0 0.0
2015-Jun-29 04:32N 51°31' E 000°09'0 0.0
2015-Jun-29 03:32N 51°31' E 000°09'0 0.0
2015-Jun-29 02:32N 51°31' E 000°09'0 0.0
2015-Jun-29 01:32N 51°31' E 000°09'0 0.0
2015-Jun-29 00:32N 51°31' E 000°09'0 0.0
2015-Jun-28 23:32N 51°31' E 000°09'0 0.0
2015-Jun-28 22:32N 51°31' E 000°09'0 0.0
2015-Jun-28 21:29N 51°31' E 000°09'0 0.0
2015-Jun-28 20:32N 51°31' E 000°09'0 0.0
2015-Jun-28 19:32N 51°31' E 000°09'0 0.0
2015-Jun-28 18:32N 51°31' E 000°09'0 0.0
2015-Jun-28 17:32N 51°31' E 000°09'0 0.0
2015-Jun-28 16:32N 51°31' E 000°09'0 0.0
2015-Jun-28 15:32N 51°31' E 000°09'0 0.0
2015-Jun-28 14:32N 51°31' E 000°09'0 0.0
2015-Jun-28 13:23N 51°31' E 000°09'0 0.0
2015-Jun-28 12:32N 51°31' E 000°09'0 0.0
2015-Jun-28 11:32N 51°31' E 000°09'0 0.0
2015-Jun-28 10:32N 51°31' E 000°09'0 0.0
2015-Jun-28 09:32N 51°31' E 000°09'0 0.0
2015-Jun-28 08:29N 51°31' E 000°09'0 0.0
2015-Jun-28 07:32N 51°31' E 000°09'0 0.0
2015-Jun-28 06:31N 51°31' E 000°09'0 0.0
2015-Jun-28 05:31N 51°31' E 000°09'0 0.0
2015-Jun-28 04:31N 51°31' E 000°09'0 0.0
2015-Jun-28 03:31N 51°31' E 000°09'0 0.0
2015-Jun-28 02:31N 51°31' E 000°09'0 0.0
2015-Jun-28 01:31N 51°31' E 000°09'0 0.0
2015-Jun-28 00:31N 51°31' E 000°09'0 0.0
2015-Jun-27 23:31N 51°31' E 000°09'0 0.0
2015-Jun-27 22:28N 51°31' E 000°09'0 0.0
2015-Jun-27 21:31N 51°31' E 000°09'0 0.0
2015-Jun-27 20:31N 51°31' E 000°09'0 0.0
2015-Jun-27 19:31N 51°31' E 000°09'0 0.0
2015-Jun-27 18:31N 51°31' E 000°09'0 0.0
2015-Jun-27 17:31N 51°31' E 000°09'0 0.0
2015-Jun-27 16:31N 51°31' E 000°09'0 0.0
2015-Jun-27 15:31N 51°31' E 000°09'0 0.0
2015-Jun-27 14:31N 51°31' E 000°09'0 0.0
2015-Jun-27 13:31N 51°31' E 000°09'0 0.0
2015-Jun-27 12:31N 51°31' E 000°09'0 0.0
2015-Jun-27 11:28N 51°31' E 000°09'0 0.0
2015-Jun-27 10:31N 51°31' E 000°09'0 0.0
2015-Jun-27 09:31N 51°31' E 000°09'0 0.0
2015-Jun-27 08:31N 51°31' E 000°09'0 0.0
2015-Jun-27 07:31N 51°31' E 000°09'0 0.0
2015-Jun-27 06:31N 51°31' E 000°09'0 0.0
2015-Jun-27 05:31N 51°31' E 000°09'0 0.0
2015-Jun-27 04:31N 51°31' E 000°09'0 0.0
2015-Jun-27 03:31N 51°31' E 000°09'0 0.0
2015-Jun-27 02:34N 51°31' E 000°09'0 0.0
2015-Jun-27 01:33N 51°31' E 000°09'0 0.0
2015-Jun-27 00:33N 51°31' E 000°09'0 0.0
2015-Jun-26 23:33N 51°31' E 000°09'0 0.0
2015-Jun-26 22:30N 51°31' E 000°09'0 0.0
2015-Jun-26 21:27N 51°31' E 000°09'0 0.0
2015-Jun-26 20:33N 51°31' E 000°09'5 4.8
2015-Jun-26 19:34N 51°28' E 000°15'8 8.0
2015-Jun-26 18:33N 51°29' E 000°28'1010.3
2015-Jun-26 17:33N 51°30' E 000°44'1511.6
2015-Jun-26 16:16N 51°29' E 001°08'811.9
2015-Jun-26 15:33N 51°28' E 001°22'3 3.1
2015-Jun-26 14:33N 51°27' E 001°26'4 3.8
2015-Jun-26 13:33N 51°25' E 001°31'3 3.4
2015-Jun-26 12:33N 51°23' E 001°35'4 3.6
2015-Jun-26 11:33N 51°20' E 001°37'5 4.5
2015-Jun-26 10:33N 51°15' E 001°38'6 6.1
2015-Jun-26 09:33N 51°09' E 001°41'9 8.9
2015-Jun-26 08:33N 51°02' E 001°33'10 9.5
2015-Jun-26 07:33N 50°54' E 001°25'9 8.9
2015-Jun-26 06:33N 50°45' E 001°21'8 8.1
2015-Jun-26 05:33N 50°39' E 001°12'8 8.4
2015-Jun-26 04:32N 50°34' E 001°02'10 9.6
2015-Jun-26 03:30N 50°30' E 000°48'39 9.8
2015-Jun-25 23:33N 50°20' W 000°11'24 8.0
2015-Jun-25 20:33N 50°16' W 000°48'8 7.5
2015-Jun-25 19:33N 50°15' W 001°00'9 7.8
2015-Jun-25 18:27N 50°14' W 001°14'9 9.0
2015-Jun-25 17:29N 50°13' W 001°27'910.1
2015-Jun-25 16:33N 50°12' W 001°41'1110.9
2015-Jun-25 15:33N 50°13' W 001°59'1111.5
2015-Jun-25 14:33N 50°11' W 002°16'1111.3
2015-Jun-25 13:33N 50°09' W 002°34'1110.6
2015-Jun-25 12:33N 50°08' W 002°50'1010.2
2015-Jun-25 11:33N 50°06' W 003°06'10 9.8
2015-Jun-25 10:33N 50°05' W 003°21'157 6.0
2015-Jun-24 08:29N 52°11' W 005°51'123 9.9
2015-Jun-23 20:06N 54°12' W 005°23'5 9.7
2015-Jun-23 19:33N 54°17' W 005°22'4 9.4
2015-Jun-23 19:06N 54°22' W 005°22'  
Track history (hours):
 
Tides and Currents Weather Stations Pressure Air Temp Water Temp Dewpoint Dewpoint Depression Visibility Wind Speed Wind Dir Waves Ship Positions

Kliftrans

Last reported at 2015-Jul-03 16:30 UTC. Time now 2015-Jul-03 17:21 UTC.
Position N 52°03' E 003°16'.

Length 88 m; draft 4.5 m.

Type: Cargo ship. MMSI: 245132000.

Date/timePositionNaut miles runAvg speedWind from/ knotsBaromVisibWave heightAir tempDewpointWater temp
2015-Jul-03 16:30N 52°03' E 003°16'8 8.8
2015-Jul-03 15:33N 52°03' E 003°29'8 8.4
2015-Jul-03 14:33N 52°03' E 003°43'9 9.0
2015-Jul-03 13:33N 52°02' E 003°57'1010.3
2015-Jul-03 12:33N 51°56' E 004°12'8 8.3
2015-Jul-03 11:33N 51°55' E 004°25'0 0.1
2015-Jul-03 10:33N 51°55' E 004°25'0 0.0
2015-Jul-03 09:33N 51°55' E 004°25'0 0.0
2015-Jul-03 08:33N 51°55' E 004°25'0 0.0
2015-Jul-03 07:33N 51°55' E 004°25'0 0.0
2015-Jul-03 06:33N 51°55' E 004°25'0 0.0
2015-Jul-03 05:33N 51°55' E 004°25'0 0.0
2015-Jul-03 04:33N 51°55' E 004°25'1 1.1
2015-Jul-03 03:33N 51°54' E 004°24'1312.8
2015-Jul-03 02:33N 51°59' E 004°05'1312.6
2015-Jul-03 01:33N 51°59' E 003°44'6711.1
2015-Jul-02 19:33N 51°37' E 002°02'1111.1
2015-Jul-02 18:33N 51°33' E 001°46'1211.6
2015-Jul-02 17:33N 51°30' E 001°28'1413.4
2015-Jul-02 16:33N 51°29' E 001°06'1414.1
2015-Jul-02 15:33N 51°29' E 000°44'1313.5
2015-Jul-02 14:34N 51°27' E 000°23'10 9.4
2015-Jul-02 13:32N 51°31' E 000°09'0 0.0
2015-Jul-02 12:32N 51°31' E 000°09'0 0.0
2015-Jul-02 11:32N 51°31' E 000°09'0 0.0
2015-Jul-02 10:23N 51°31' E 000°09'0 0.0
2015-Jul-02 09:32N 51°31' E 000°09'0 0.0
2015-Jul-02 08:32N 51°31' E 000°09'0 0.0
2015-Jul-02 07:32N 51°31' E 000°09'0 0.0
2015-Jul-02 06:32N 51°31' E 000°09'0 0.0
2015-Jul-02 05:32N 51°31' E 000°09'0 0.0
2015-Jul-02 04:32N 51°31' E 000°09'0 0.0
2015-Jul-02 03:32N 51°31' E 000°09'0 0.0
2015-Jul-02 02:32N 51°31' E 000°09'0 0.0
2015-Jul-02 01:32N 51°31' E 000°09'0 0.0
2015-Jul-02 00:32N 51°31' E 000°09'0 0.0
2015-Jul-01 23:32N 51°31' E 000°09'0 0.0
2015-Jul-01 22:32N 51°31' E 000°09'0 0.0
2015-Jul-01 21:31N 51°31' E 000°09'0 0.0
2015-Jul-01 20:28N 51°31' E 000°09'0 0.0
2015-Jul-01 19:31N 51°31' E 000°09'0 0.0
2015-Jul-01 18:31N 51°31' E 000°09'0 0.0
2015-Jul-01 17:31N 51°31' E 000°09'0 0.0
2015-Jul-01 16:31N 51°31' E 000°09'0 0.0
2015-Jul-01 15:31N 51°31' E 000°09'0 0.0
2015-Jul-01 14:31N 51°31' E 000°09'0 0.0
2015-Jul-01 13:28N 51°31' E 000°09'0 0.0
2015-Jul-01 12:28N 51°31' E 000°09'0 0.0
2015-Jul-01 11:31N 51°31' E 000°09'0 0.0
2015-Jul-01 10:31N 51°31' E 000°09'0 0.0
2015-Jul-01 09:31N 51°31' E 000°09'0 0.0
2015-Jul-01 08:31N 51°31' E 000°09'0 0.0
2015-Jul-01 07:31N 51°31' E 000°09'0 0.0
2015-Jul-01 06:31N 51°31' E 000°09'0 0.0
2015-Jul-01 05:31N 51°31' E 000°09'0 0.0
2015-Jul-01 04:31N 51°31' E 000°09'0 0.0
2015-Jul-01 03:31N 51°31' E 000°09'0 0.0
2015-Jul-01 02:31N 51°31' E 000°09'0 0.0
2015-Jul-01 01:31N 51°31' E 000°09'0 0.0
2015-Jul-01 00:31N 51°31' E 000°09'0 0.0
2015-Jun-30 23:31N 51°31' E 000°09'0 0.0
2015-Jun-30 22:31N 51°31' E 000°09'0 0.0
2015-Jun-30 21:25N 51°31' E 000°09'0 0.0
2015-Jun-30 20:28N 51°31' E 000°09'0 0.0
2015-Jun-30 19:31N 51°31' E 000°09'0 0.0
2015-Jun-30 18:31N 51°31' E 000°09'0 0.0
2015-Jun-30 17:34N 51°31' E 000°09'0 0.0
2015-Jun-30 16:33N 51°31' E 000°09'0 0.0
2015-Jun-30 15:33N 51°31' E 000°09'0 0.0
2015-Jun-30 14:33N 51°31' E 000°09'0 0.0
2015-Jun-30 13:33N 51°31' E 000°09'0 0.0
2015-Jun-30 12:33N 51°31' E 000°09'0 0.0
2015-Jun-30 11:33N 51°31' E 000°09'0 0.0
2015-Jun-30 10:33N 51°31' E 000°09'0 0.0
2015-Jun-30 09:30N 51°31' E 000°09'0 0.0
2015-Jun-30 08:33N 51°31' E 000°09'0 0.0
2015-Jun-30 07:33N 51°31' E 000°09'0 0.0
2015-Jun-30 06:33N 51°31' E 000°09'0 0.0
2015-Jun-30 05:33N 51°31' E 000°09'0 0.0
2015-Jun-30 04:33N 51°31' E 000°09'0 0.0
2015-Jun-30 03:33N 51°31' E 000°09'0 0.0
2015-Jun-30 02:33N 51°31' E 000°09'0 0.0
2015-Jun-30 01:33N 51°31' E 000°09'0 0.0
2015-Jun-30 00:33N 51°31' E 000°09'0 0.0
2015-Jun-29 23:33N 51°31' E 000°09'0 0.0
2015-Jun-29 22:33N 51°31' E 000°09'0 0.0
2015-Jun-29 21:33N 51°31' E 000°09'0 0.0
2015-Jun-29 20:33N 51°31' E 000°09'0 0.0
2015-Jun-29 19:33N 51°31' E 000°09'0 0.0
2015-Jun-29 18:33N 51°31' E 000°09'0 0.0
2015-Jun-29 17:33N 51°31' E 000°09'0 0.0
2015-Jun-29 16:33N 51°31' E 000°09'0 0.0
2015-Jun-29 15:30N 51°31' E 000°09'0 0.0
2015-Jun-29 14:33N 51°31' E 000°09'0 0.0
2015-Jun-29 13:33N 51°31' E 000°09'0 0.0
2015-Jun-29 12:30N 51°31' E 000°09'0 0.0
2015-Jun-29 11:32N 51°31' E 000°09'0 0.0
2015-Jun-29 10:29N 51°31' E 000°09'0 0.0
2015-Jun-29 09:32N 51°31' E 000°09'0 0.0
2015-Jun-29 08:32N 51°31' E 000°09'0 0.0
2015-Jun-29 07:32N 51°31' E 000°09'0 0.0
2015-Jun-29 06:32N 51°31' E 000°09'0 0.0
2015-Jun-29 05:32N 51°31' E 000°09'0 0.0
2015-Jun-29 04:32N 51°31' E 000°09'0 0.0
2015-Jun-29 03:32N 51°31' E 000°09'0 0.0
2015-Jun-29 02:32N 51°31' E 000°09'0 0.0
2015-Jun-29 01:32N 51°31' E 000°09'0 0.0
2015-Jun-29 00:32N 51°31' E 000°09'0 0.0
2015-Jun-28 23:32N 51°31' E 000°09'0 0.0
2015-Jun-28 22:32N 51°31' E 000°09'0 0.0
2015-Jun-28 21:29N 51°31' E 000°09'0 0.0
2015-Jun-28 20:32N 51°31' E 000°09'0 0.0
2015-Jun-28 19:32N 51°31' E 000°09'0 0.0
2015-Jun-28 18:32N 51°31' E 000°09'0 0.0
2015-Jun-28 17:32N 51°31' E 000°09'0 0.0
2015-Jun-28 16:32N 51°31' E 000°09'0 0.0
2015-Jun-28 15:32N 51°31' E 000°09'0 0.0
2015-Jun-28 14:32N 51°31' E 000°09'0 0.0
2015-Jun-28 13:23N 51°31' E 000°09'0 0.0
2015-Jun-28 12:32N 51°31' E 000°09'0 0.0
2015-Jun-28 11:32N 51°31' E 000°09'0 0.0
2015-Jun-28 10:32N 51°31' E 000°09'0 0.0
2015-Jun-28 09:32N 51°31' E 000°09'0 0.0
2015-Jun-28 08:29N 51°31' E 000°09'0 0.0
2015-Jun-28 07:32N 51°31' E 000°09'0 0.0
2015-Jun-28 06:31N 51°31' E 000°09'0 0.0
2015-Jun-28 05:31N 51°31' E 000°09'0 0.0
2015-Jun-28 04:31N 51°31' E 000°09'0 0.0
2015-Jun-28 03:31N 51°31' E 000°09'0 0.0
2015-Jun-28 02:31N 51°31' E 000°09'0 0.0
2015-Jun-28 01:31N 51°31' E 000°09'0 0.0
2015-Jun-28 00:31N 51°31' E 000°09'0 0.0
2015-Jun-27 23:31N 51°31' E 000°09'0 0.0
2015-Jun-27 22:28N 51°31' E 000°09'0 0.0
2015-Jun-27 21:31N 51°31' E 000°09'0 0.0
2015-Jun-27 20:31N 51°31' E 000°09'0 0.0
2015-Jun-27 19:31N 51°31' E 000°09'0 0.0
2015-Jun-27 18:31N 51°31' E 000°09'0 0.0
2015-Jun-27 17:31N 51°31' E 000°09'0 0.0
2015-Jun-27 16:31N 51°31' E 000°09'0 0.0
2015-Jun-27 15:31N 51°31' E 000°09'0 0.0
2015-Jun-27 14:31N 51°31' E 000°09'0 0.0
2015-Jun-27 13:31N 51°31' E 000°09'0 0.0
2015-Jun-27 12:31N 51°31' E 000°09'0 0.0
2015-Jun-27 11:28N 51°31' E 000°09'0 0.0
2015-Jun-27 10:31N 51°31' E 000°09'0 0.0
2015-Jun-27 09:31N 51°31' E 000°09'0 0.0
2015-Jun-27 08:31N 51°31' E 000°09'0 0.0
2015-Jun-27 07:31N 51°31' E 000°09'0 0.0
2015-Jun-27 06:31N 51°31' E 000°09'0 0.0
2015-Jun-27 05:31N 51°31' E 000°09'0 0.0
2015-Jun-27 04:31N 51°31' E 000°09'0 0.0
2015-Jun-27 03:31N 51°31' E 000°09'0 0.0
2015-Jun-27 02:34N 51°31' E 000°09'0 0.0
2015-Jun-27 01:33N 51°31' E 000°09'0 0.0
2015-Jun-27 00:33N 51°31' E 000°09'0 0.0
2015-Jun-26 23:33N 51°31' E 000°09'0 0.0
2015-Jun-26 22:30N 51°31' E 000°09'0 0.0
2015-Jun-26 21:27N 51°31' E 000°09'0 0.0
2015-Jun-26 20:33N 51°31' E 000°09'5 4.8
2015-Jun-26 19:34N 51°28' E 000°15'8 8.0
2015-Jun-26 18:33N 51°29' E 000°28'1010.3
2015-Jun-26 17:33N 51°30' E 000°44'1511.6
2015-Jun-26 16:16N 51°29' E 001°08'811.9
2015-Jun-26 15:33N 51°28' E 001°22'3 3.1
2015-Jun-26 14:33N 51°27' E 001°26'4 3.8
2015-Jun-26 13:33N 51°25' E 001°31'3 3.4
2015-Jun-26 12:33N 51°23' E 001°35'4 3.6
2015-Jun-26 11:33N 51°20' E 001°37'5 4.5
2015-Jun-26 10:33N 51°15' E 001°38'6 6.1
2015-Jun-26 09:33N 51°09' E 001°41'9 8.9
2015-Jun-26 08:33N 51°02' E 001°33'10 9.5
2015-Jun-26 07:33N 50°54' E 001°25'9 8.9
2015-Jun-26 06:33N 50°45' E 001°21'8 8.1
2015-Jun-26 05:33N 50°39' E 001°12'8 8.4
2015-Jun-26 04:32N 50°34' E 001°02'10 9.6
2015-Jun-26 03:30N 50°30' E 000°48'39 9.8
2015-Jun-25 23:33N 50°20' W 000°11'24 8.0
2015-Jun-25 20:33N 50°16' W 000°48'8 7.5
2015-Jun-25 19:33N 50°15' W 001°00'9 7.8
2015-Jun-25 18:27N 50°14' W 001°14'9 9.0
2015-Jun-25 17:29N 50°13' W 001°27'910.1
2015-Jun-25 16:33N 50°12' W 001°41'1110.9
2015-Jun-25 15:33N 50°13' W 001°59'1111.5
2015-Jun-25 14:33N 50°11' W 002°16'1111.3
2015-Jun-25 13:33N 50°09' W 002°34'1110.6
2015-Jun-25 12:33N 50°08' W 002°50'1010.2
2015-Jun-25 11:33N 50°06' W 003°06'10 9.8
2015-Jun-25 10:33N 50°05' W 003°21'157 6.0
2015-Jun-24 08:29N 52°11' W 005°51'123 9.9
2015-Jun-23 20:06N 54°12' W 005°23'5 9.7
2015-Jun-23 19:33N 54°17' W 005°22'4 9.4
2015-Jun-23 19:06N 54°22' W 005°22'  

Dump ship's entire track history